Time;durP1;ratioP1;P1;durP2;ratioP2;P2;SDS_P1;SDS_P2;PMS_P1;PMS_P2;Temp;Humidity;BMP_temperature;BMP_pressure;BME280_temperature;BME280_humidity;BME280_pressure;Samples;Min_cycle;Max_cycle;Signal;HPM_P1;HPM_P2
2022/06/02 00:02:28;;;;;;;0.30;0.30;;;21.30;54.90;;;;;;4965341;28;20204;-18
2022/06/02 00:05:03;;;;;;;0.47;0.35;;;21.30;55.00;;;;;;4971892;28;20042;-17
2022/06/02 00:07:40;;;;;;;0.55;0.22;;;21.30;55.00;;;;;;4974649;28;20047;-18
2022/06/02 00:10:46;;;;;;;0.20;0.20;;;21.30;54.90;;;;;;4973665;28;20040;-18
2022/06/02 00:13:29;;;;;;;0.30;0.20;;;21.30;54.90;;;;;;4974251;28;20043;-18
2022/06/02 00:16:03;;;;;;;0.60;0.30;;;21.30;55.00;;;;;;4972355;28;20038;-18
2022/06/02 00:18:32;;;;;;;0.25;0.25;;;21.30;55.20;;;;;;4973741;28;20098;-18
2022/06/02 00:21:00;;;;;;;0.40;0.40;;;21.20;55.20;;;;;;4966361;28;20500;-18
2022/06/02 00:23:55;;;;;;;0.65;0.22;;;21.20;55.20;;;;;;4955785;28;20131;-19
2022/06/02 00:26:24;;;;;;;0.20;0.17;;;21.20;55.10;;;;;;4961667;28;20524;-18
2022/06/02 00:28:52;;;;;;;0.20;0.20;;;21.20;55.10;;;;;;4981858;28;20050;-17
2022/06/02 00:31:31;;;;;;;0.20;0.20;;;21.20;55.10;;;;;;4975104;28;20066;-17
2022/06/02 00:34:24;;;;;;;0.40;0.40;;;21.20;55.10;;;;;;4973254;28;20047;-17
2022/06/02 00:37:23;;;;;;;0.38;0.30;;;21.20;55.20;;;;;;4971116;28;20047;-17
2022/06/02 00:39:49;;;;;;;0.30;0.25;;;21.20;55.20;;;;;;4955497;28;20044;-17
2022/06/02 00:42:24;;;;;;;1.08;0.40;;;21.20;55.20;;;;;;4956804;28;20255;-18
2022/06/02 00:45:10;;;;;;;0.20;0.20;;;21.20;55.30;;;;;;4975050;28;20133;-18
2022/06/02 00:47:48;;;;;;;1.92;0.30;;;21.10;55.30;;;;;;4965326;28;20047;-17
2022/06/02 00:50:26;;;;;;;0.20;0.20;;;21.10;55.40;;;;;;4977339;28;20041;-18
2022/06/02 00:53:07;;;;;;;0.40;0.28;;;21.10;55.40;;;;;;4977669;28;20078;-18
2022/06/02 00:58:56;;;;;;;0.20;0.20;;;21.10;55.20;;;;;;4978272;28;20097;-19
2022/06/02 01:01:31;;;;;;;0.65;0.22;;;21.10;55.40;;;;;;4965122;28;20053;-17
2022/06/02 01:03:57;;;;;;;0.20;0.20;;;21.10;55.40;;;;;;4977816;28;20042;-17
2022/06/02 01:06:29;;;;;;;0.30;0.30;;;21.10;55.40;;;;;;4975837;28;20085;-18
2022/06/02 01:09:26;;;;;;;0.30;0.20;;;21.10;55.40;;;;;;4975732;28;20051;-18
2022/06/02 01:12:10;;;;;;;0.47;0.40;;;21.20;55.40;;;;;;4978657;28;20066;-18
2022/06/02 01:14:51;;;;;;;0.43;0.20;;;21.10;55.40;;;;;;4960406;28;20138;-18
2022/06/02 01:17:36;;;;;;;0.38;0.15;;;21.10;55.50;;;;;;4967684;28;20602;-18
2022/06/02 01:20:32;;;;;;;0.20;0.20;;;21.10;55.30;;;;;;4976433;28;20054;-18
2022/06/02 01:23:21;;;;;;;0.20;0.20;;;21.10;55.50;;;;;;4976580;28;20141;-18
2022/06/02 01:25:55;;;;;;;0.40;0.30;;;21.00;55.60;;;;;;4977756;28;20353;-17
2022/06/02 01:28:45;;;;;;;0.25;0.22;;;21.00;55.60;;;;;;4964847;28;20058;-18
2022/06/02 01:31:48;;;;;;;0.20;0.20;;;21.00;55.60;;;;;;4977750;28;29558;-17
2022/06/02 01:34:39;;;;;;;0.30;0.28;;;21.00;55.70;;;;;;4955204;28;20074;-18
2022/06/02 01:37:30;;;;;;;0.20;0.20;;;21.00;55.70;;;;;;4966300;28;20138;-17
2022/06/02 01:39:55;;;;;;;0.30;0.30;;;21.00;55.70;;;;;;4977765;28;20519;-18
2022/06/02 01:42:41;;;;;;;0.30;0.30;;;21.00;55.70;;;;;;4977440;28;20478;-17
2022/06/02 01:45:24;;;;;;;0.47;0.20;;;21.00;55.70;;;;;;4975784;28;20035;-18
2022/06/02 01:48:10;;;;;;;0.20;0.20;;;21.00;55.70;;;;;;4976428;28;20042;-17
2022/06/02 01:51:10;;;;;;;0.50;0.20;;;21.10;55.60;;;;;;4946746;28;20045;-18
2022/06/02 01:53:40;;;;;;;0.50;0.30;;;21.10;55.80;;;;;;4976542;28;20042;-17
2022/06/02 01:56:34;;;;;;;0.10;0.10;;;21.00;55.60;;;;;;4975711;28;20126;-18
2022/06/02 01:59:19;;;;;;;0.25;0.25;;;21.00;55.70;;;;;;4973121;28;20051;-18
2022/06/02 02:02:03;;;;;;;0.45;0.30;;;21.00;55.80;;;;;;4977930;28;20121;-18
2022/06/02 02:04:54;;;;;;;0.30;0.30;;;21.00;55.80;;;;;;4974409;28;20055;-18
2022/06/02 02:07:31;;;;;;;0.20;0.15;;;21.00;55.90;;;;;;4976622;28;20046;-17
2022/06/02 02:10:26;;;;;;;0.30;0.28;;;21.00;55.70;;;;;;4976257;28;20419;-18
2022/06/02 02:13:07;;;;;;;0.20;0.13;;;21.00;55.70;;;;;;4974872;28;20106;-18
2022/06/02 02:15:49;;;;;;;0.20;0.20;;;21.00;55.80;;;;;;4975334;28;20058;-18
2022/06/02 02:18:36;;;;;;;0.30;0.22;;;21.00;55.90;;;;;;4971352;28;20047;-17
2022/06/02 02:21:28;;;;;;;0.40;0.40;;;21.00;55.90;;;;;;4962476;28;20456;-18
2022/06/02 02:24:14;;;;;;;0.20;0.20;;;20.90;55.80;;;;;;4968189;28;20058;-18
2022/06/02 02:27:18;;;;;;;0.30;0.30;;;21.00;55.90;;;;;;4972499;28;20564;-18
2022/06/02 02:30:04;;;;;;;0.20;0.20;;;21.00;55.90;;;;;;4975492;28;20396;-18
2022/06/02 02:32:45;;;;;;;0.30;0.25;;;21.00;55.80;;;;;;4975039;28;20047;-17
2022/06/02 02:35:28;;;;;;;0.20;0.10;;;20.90;55.80;;;;;;4975710;28;20050;-17
2022/06/02 02:38:22;;;;;;;0.20;0.20;;;20.90;55.80;;;;;;4991331;28;20847;-17
2022/06/02 02:41:03;;;;;;;0.10;0.10;;;20.90;55.80;;;;;;4974612;28;20162;-18
2022/06/02 02:43:32;;;;;;;0.20;0.20;;;20.90;55.80;;;;;;4976943;28;20102;-17
2022/06/02 02:46:25;;;;;;;0.20;0.20;;;21.00;55.80;;;;;;4974730;28;20141;-18
2022/06/02 02:49:03;;;;;;;0.20;0.20;;;21.00;55.80;;;;;;4975613;28;20047;-18
2022/06/02 02:52:04;;;;;;;0.55;0.43;;;20.90;55.80;;;;;;4973558;28;20137;-19
2022/06/02 02:54:35;;;;;;;0.13;0.13;;;20.90;55.90;;;;;;4935316;29;20128;-18
2022/06/02 02:57:25;;;;;;;0.13;0.13;;;20.90;55.90;;;;;;4979044;28;20507;-18
2022/06/02 03:00:14;;;;;;;0.20;0.20;;;20.90;55.90;;;;;;4975598;28;20042;-17
2022/06/02 03:02:46;;;;;;;0.20;0.10;;;20.90;55.90;;;;;;4974204;28;20055;-18
2022/06/02 03:05:21;;;;;;;0.35;0.10;;;20.90;55.90;;;;;;4976034;28;20089;-18
2022/06/02 03:07:47;;;;;;;0.10;0.10;;;20.90;55.90;;;;;;4972662;28;20047;-18
2022/06/02 03:10:17;;;;;;;0.30;0.22;;;20.90;56.00;;;;;;4975338;28;20185;-18
2022/06/02 03:13:04;;;;;;;0.20;0.20;;;20.90;56.00;;;;;;4976466;28;20602;-18
2022/06/02 03:15:45;;;;;;;0.22;0.22;;;20.90;56.00;;;;;;4973130;28;20133;-19
2022/06/02 03:18:35;;;;;;;0.17;0.17;;;21.00;55.80;;;;;;4973167;28;20045;-17
2022/06/02 03:21:20;;;;;;;0.40;0.20;;;20.90;55.80;;;;;;4976099;28;20125;-18
2022/06/02 03:23:59;;;;;;;0.20;0.20;;;20.90;55.80;;;;;;4970501;28;20051;-18
2022/06/02 03:26:30;;;;;;;0.10;0.10;;;20.90;56.00;;;;;;5000297;28;20046;-17
2022/06/02 03:28:56;;;;;;;0.13;0.13;;;20.90;55.90;;;;;;4990025;28;20047;-17
2022/06/02 03:31:49;;;;;;;0.20;0.10;;;20.90;56.00;;;;;;4968999;28;20047;-18
2022/06/02 03:34:33;;;;;;;0.20;0.20;;;20.90;56.00;;;;;;4971584;28;20070;-18
2022/06/02 03:37:07;;;;;;;;;;;20.80;56.00;;;;;;4976096;28;20436;-18
2022/06/02 03:39:55;;;;;;;0.55;0.20;;;20.80;56.10;;;;;;4974393;28;20594;-17
2022/06/02 03:42:36;;;;;;;0.10;0.10;;;20.80;55.90;;;;;;4990535;28;20927;-17
2022/06/02 03:45:11;;;;;;;0.30;0.28;;;20.90;56.00;;;;;;4964583;28;20055;-17
2022/06/02 03:47:49;;;;;;;0.10;0.10;;;20.90;56.00;;;;;;4974202;28;20118;-17
2022/06/02 03:50:21;;;;;;;0.10;0.10;;;20.80;56.00;;;;;;4975020;28;20047;-18
2022/06/02 03:53:24;;;;;;;0.20;0.20;;;20.80;56.00;;;;;;4975847;28;20101;-18
2022/06/02 03:56:28;;;;;;;0.30;0.30;;;20.80;56.00;;;;;;4974203;28;20113;-18
2022/06/02 03:58:53;;;;;;;0.20;0.20;;;20.80;56.00;;;;;;4967505;28;20053;-17
2022/06/02 04:01:24;;;;;;;0.35;0.13;;;20.80;55.90;;;;;;4975556;28;20042;-18
2022/06/02 04:04:01;;;;;;;0.30;0.10;;;20.80;56.00;;;;;;4973257;28;20086;-18
2022/06/02 04:06:42;;;;;;;0.10;0.10;;;20.80;56.00;;;;;;4952428;28;20051;-18
2022/06/02 04:09:30;;;;;;;0.20;0.20;;;20.90;56.00;;;;;;4971629;28;20496;-18
2022/06/02 04:15:22;;;;;;;0.30;0.20;;;20.80;56.10;;;;;;4955216;28;20058;-18
2022/06/02 04:17:48;;;;;;;0.30;0.20;;;20.80;56.10;;;;;;4961132;28;20043;-17
2022/06/02 04:23:21;;;;;;;0.10;0.10;;;20.80;56.20;;;;;;4977582;28;20061;-18
2022/06/02 04:26:08;;;;;;;0.13;0.13;;;20.80;56.20;;;;;;4976140;28;20113;-18
2022/06/02 04:28:40;;;;;;;0.10;0.10;;;20.80;56.20;;;;;;4975931;28;20540;-19
2022/06/02 04:31:27;;;;;;;0.10;0.10;;;20.80;56.20;;;;;;4991120;28;20047;-20
2022/06/02 04:34:19;;;;;;;0.10;0.10;;;20.80;56.20;;;;;;4976454;28;20400;-18
2022/06/02 04:36:47;;;;;;;0.10;0.10;;;20.80;56.20;;;;;;4969258;28;20122;-18
2022/06/02 04:39:13;;;;;;;0.10;0.10;;;20.80;56.20;;;;;;4977708;28;20424;-18
2022/06/02 04:41:51;;;;;;;0.20;0.20;;;20.80;56.30;;;;;;4977887;28;20069;-17
2022/06/02 04:44:45;;;;;;;0.30;0.30;;;20.80;56.30;;;;;;4972218;28;20116;-18
2022/06/02 04:47:36;;;;;;;0.25;0.10;;;20.70;56.30;;;;;;4968155;28;20467;-17
2022/06/02 04:50:16;;;;;;;0.10;0.10;;;20.80;56.40;;;;;;4960753;28;20052;-19
2022/06/02 04:53:10;;;;;;;0.20;0.10;;;20.80;56.30;;;;;;4959710;28;20118;-18
2022/06/02 04:55:44;;;;;;;0.10;0.10;;;20.80;56.30;;;;;;4971021;28;20492;-17
2022/06/02 04:58:26;;;;;;;0.25;0.25;;;20.80;56.30;;;;;;5004228;28;20047;-18
2022/06/02 05:01:27;;;;;;;0.20;0.20;;;20.80;56.30;;;;;;4959977;28;20050;-19
2022/06/02 05:04:12;;;;;;;0.70;0.25;;;20.80;56.40;;;;;;4967609;28;20046;-18
2022/06/02 05:06:57;;;;;;;0.20;0.10;;;20.80;56.50;;;;;;4970001;28;20047;-18
2022/06/02 05:09:31;;;;;;;0.10;0.10;;;20.80;56.60;;;;;;4971642;28;20043;-18
2022/06/02 05:12:11;;;;;;;0.20;0.20;;;20.90;56.70;;;;;;4976339;28;20043;-17
2022/06/02 05:15:02;;;;;;;0.20;0.20;;;20.90;57.10;;;;;;4953697;28;20130;-18
2022/06/02 05:18:12;;;;;;;0.13;0.13;;;20.90;57.30;;;;;;4962297;28;21071;-17
2022/06/02 05:21:15;;;;;;;0.68;0.20;;;20.90;57.80;;;;;;4956253;28;20066;-18
2022/06/02 05:24:09;;;;;;;0.30;0.20;;;20.80;57.30;;;;;;4973436;28;20512;-18
2022/06/02 05:27:05;;;;;;;1.10;0.20;;;20.80;57.20;;;;;;4976400;28;20054;-17
2022/06/02 05:29:34;;;;;;;0.17;0.17;;;20.80;57.40;;;;;;4976058;28;20047;-18
2022/06/02 05:32:03;;;;;;;0.47;0.17;;;20.90;57.50;;;;;;4974171;28;20050;-17
2022/06/02 05:34:44;;;;;;;0.88;0.50;;;20.90;57.30;;;;;;4970004;28;20051;-18
2022/06/02 05:37:13;;;;;;;0.50;0.40;;;20.90;57.70;;;;;;4978291;28;20202;-19
2022/06/02 05:39:47;;;;;;;1.25;0.52;;;20.90;57.60;;;;;;4976770;28;20047;-19
2022/06/02 05:42:43;;;;;;;1.08;0.60;;;21.00;57.80;;;;;;4977017;28;20050;-20
2022/06/02 05:45:20;;;;;;;0.82;0.40;;;21.00;57.60;;;;;;4965984;28;20129;-19
2022/06/02 05:48:07;;;;;;;1.70;0.40;;;20.80;58.10;;;;;;4973740;28;20047;-20
2022/06/02 05:50:47;;;;;;;1.35;0.38;;;20.80;58.00;;;;;;4971472;28;20129;-18
2022/06/02 05:53:27;;;;;;;1.75;0.30;;;20.80;57.80;;;;;;4960784;28;20046;-18
2022/06/02 05:56:20;;;;;;;0.88;0.50;;;20.80;57.80;;;;;;4974406;28;20420;-18
2022/06/02 05:59:08;;;;;;;1.55;0.52;;;20.90;57.70;;;;;;4955662;28;20137;-19
2022/06/02 06:01:47;;;;;;;0.60;0.30;;;20.90;57.60;;;;;;4957405;28;20412;-19
2022/06/02 06:04:28;;;;;;;3.42;0.47;;;20.90;57.60;;;;;;4971873;28;20134;-21
2022/06/02 06:07:31;;;;;;;2.72;0.40;;;20.90;57.60;;;;;;4974517;28;20058;-26
2022/06/02 06:10:07;;;;;;;1.80;0.40;;;20.90;57.40;;;;;;4976129;28;20039;-20
2022/06/02 06:12:39;;;;;;;2.90;0.50;;;20.90;57.30;;;;;;4974367;28;20074;-21
2022/06/02 06:15:44;;;;;;;1.33;0.43;;;20.90;57.30;;;;;;4969472;28;20054;-21
2022/06/02 06:18:13;;;;;;;;;;;20.80;57.10;;;;;;4943522;28;20186;-21
2022/06/02 06:20:57;;;;;;;2.30;0.38;;;20.80;57.40;;;;;;4957574;28;19953;-21
2022/06/02 06:23:42;;;;;;;;;;;20.80;57.00;;;;;;4958040;28;20063;-22
2022/06/02 06:26:16;;;;;;;1.33;0.35;;;20.80;57.30;;;;;;4963321;28;19925;-22
2022/06/02 06:29:31;;;;;;;0.43;0.40;;;20.80;56.90;;;;;;4975961;28;20042;-21
2022/06/02 06:32:04;;;;;;;1.20;0.60;;;20.80;56.80;;;;;;4955960;28;20062;-21
2022/06/02 06:34:46;;;;;;;1.10;0.50;;;20.80;56.90;;;;;;4975649;28;20039;-22
2022/06/02 06:37:28;;;;;;;2.05;0.60;;;20.80;56.70;;;;;;4974408;28;20523;-23
2022/06/02 06:40:13;;;;;;;1.75;0.40;;;20.80;56.70;;;;;;4975711;28;20054;-19
2022/06/02 06:42:49;;;;;;;4.60;0.40;;;20.80;56.80;;;;;;4976106;28;20534;-19
2022/06/02 06:45:21;;;;;;;0.40;0.40;;;20.90;56.80;;;;;;4975731;28;20050;-19
2022/06/02 06:47:53;;;;;;;0.65;0.30;;;20.80;56.60;;;;;;4971773;28;20588;-18
2022/06/02 06:50:53;;;;;;;0.52;0.50;;;20.80;56.60;;;;;;4954957;28;20035;-18
2022/06/02 06:53:49;;;;;;;0.80;0.43;;;20.90;56.60;;;;;;4956265;28;20038;-18
2022/06/02 06:56:27;;;;;;;1.02;0.30;;;20.80;56.60;;;;;;4975789;28;20317;-19
2022/06/02 06:59:04;;;;;;;0.50;0.40;;;20.80;56.50;;;;;;4975393;28;20054;-19
2022/06/02 07:02:05;;;;;;;0.38;0.38;;;20.80;56.50;;;;;;4963842;28;20090;-18
2022/06/02 07:05:09;;;;;;;1.08;0.40;;;20.80;56.50;;;;;;4956703;28;20169;-19
2022/06/02 07:07:53;;;;;;;0.25;0.25;;;20.80;56.40;;;;;;4972579;28;20051;-19
2022/06/02 07:10:27;;;;;;;0.70;0.30;;;20.80;56.30;;;;;;4968427;28;20047;-19
2022/06/02 07:13:15;;;;;;;0.40;0.30;;;20.80;56.30;;;;;;4956415;28;20047;-18
2022/06/02 07:15:44;;;;;;;0.52;0.30;;;20.80;56.30;;;;;;4939882;28;20126;-18
2022/06/02 07:18:28;;;;;;;1.60;0.60;;;20.80;56.40;;;;;;4956687;28;20093;-20
2022/06/02 07:21:05;;;;;;;0.32;0.32;;;20.80;56.20;;;;;;4976556;28;20055;-18
2022/06/02 07:23:56;;;;;;;0.50;0.50;;;20.80;56.10;;;;;;4975843;28;20059;-18
2022/06/02 07:26:46;;;;;;;1.23;0.30;;;20.80;56.20;;;;;;4975033;28;20526;-19
2022/06/02 07:29:25;;;;;;;0.65;0.22;;;20.80;56.00;;;;;;4925011;28;20055;-18
2022/06/02 07:32:11;;;;;;;0.57;0.45;;;20.80;56.20;;;;;;4955810;28;20039;-20
2022/06/02 07:34:51;;;;;;;0.47;0.28;;;20.80;56.80;;;;;;4957032;28;20055;-18
2022/06/02 07:37:26;;;;;;;0.68;0.55;;;20.80;56.30;;;;;;4959510;28;20042;-18
2022/06/02 07:40:09;;;;;;;0.65;0.30;;;20.80;56.10;;;;;;4975003;28;20137;-18
2022/06/02 07:42:51;;;;;;;0.20;0.20;;;20.80;56.20;;;;;;4973806;28;20106;-18
2022/06/02 07:45:26;;;;;;;0.63;0.40;;;20.80;56.30;;;;;;4975248;28;20049;-18
2022/06/02 07:48:13;;;;;;;0.63;0.32;;;20.80;56.20;;;;;;4990200;28;20516;-18
2022/06/02 07:50:46;;;;;;;0.30;0.30;;;20.80;56.10;;;;;;4976039;28;20050;-18
2022/06/02 07:53:42;;;;;;;0.30;0.30;;;20.80;56.10;;;;;;4941925;28;20114;-19
2022/06/02 07:56:14;;;;;;;0.60;0.32;;;20.80;56.10;;;;;;4970206;28;20082;-19
2022/06/02 07:58:52;;;;;;;1.00;0.57;;;20.80;56.10;;;;;;4965479;28;20035;-18
2022/06/02 08:01:17;;;;;;;0.30;0.20;;;20.80;56.10;;;;;;4982849;28;20101;-20
2022/06/02 08:03:54;;;;;;;0.80;0.40;;;20.80;56.20;;;;;;4982134;28;20047;-18
2022/06/02 08:06:43;;;;;;;0.30;0.22;;;20.80;56.10;;;;;;4981615;28;20478;-18
2022/06/02 08:09:36;;;;;;;0.35;0.20;;;20.80;56.10;;;;;;4962118;28;20043;-18
2022/06/02 08:12:02;;;;;;;0.38;0.20;;;20.80;56.10;;;;;;4980349;28;20047;-18
2022/06/02 08:14:50;;;;;;;0.40;0.30;;;20.80;56.20;;;;;;4982193;28;20043;-19
2022/06/02 08:17:23;;;;;;;0.52;0.22;;;20.80;56.20;;;;;;4965582;28;20530;-19
2022/06/02 08:20:10;;;;;;;0.40;0.40;;;20.80;56.20;;;;;;4982185;28;20043;-18
2022/06/02 08:22:47;;;;;;;0.25;0.25;;;20.80;56.20;;;;;;4980837;28;20054;-19
2022/06/02 08:25:14;;;;;;;0.30;0.30;;;20.80;56.20;;;;;;4980571;28;20051;-19
2022/06/02 08:28:01;;;;;;;0.70;0.20;;;20.70;56.20;;;;;;4981988;28;20528;-19
2022/06/02 08:30:59;;;;;;;0.38;0.22;;;20.70;56.20;;;;;;4975275;28;20473;-19
2022/06/02 08:33:30;;;;;;;0.20;0.20;;;20.80;56.20;;;;;;4961963;28;20050;-18
2022/06/02 08:36:15;;;;;;;0.30;0.30;;;20.80;56.30;;;;;;4963136;28;20134;-18
2022/06/02 08:39:00;;;;;;;0.47;0.30;;;20.80;56.20;;;;;;4975313;28;20043;-20
2022/06/02 08:41:35;;;;;;;0.47;0.30;;;20.80;56.10;;;;;;4976738;28;20034;-19
2022/06/02 08:44:19;;;;;;;0.28;0.28;;;20.80;56.20;;;;;;4980539;28;20046;-19
2022/06/02 08:47:19;;;;;;;0.30;0.30;;;20.80;56.20;;;;;;4962665;28;20039;-18
2022/06/02 08:50:11;;;;;;;0.38;0.30;;;20.80;56.10;;;;;;4959465;28;20098;-18
2022/06/02 08:52:55;;;;;;;0.20;0.20;;;20.80;56.20;;;;;;4962768;28;20094;-19
2022/06/02 08:55:42;;;;;;;0.30;0.30;;;20.90;56.10;;;;;;4962917;28;20047;-20
2022/06/02 08:58:43;;;;;;;0.30;0.30;;;20.90;56.00;;;;;;4962691;28;20065;-19
2022/06/02 09:01:31;;;;;;;0.50;0.40;;;20.90;56.00;;;;;;4960302;28;20505;-18
2022/06/02 09:04:09;;;;;;;0.20;0.20;;;20.90;56.00;;;;;;4961275;28;20047;-18
2022/06/02 09:07:12;;;;;;;0.93;0.30;;;20.90;56.10;;;;;;4959803;28;20408;-19
2022/06/02 09:09:56;;;;;;;0.30;0.30;;;20.90;55.90;;;;;;4959497;28;20043;-19
2022/06/02 09:12:54;;;;;;;0.30;0.30;;;20.90;56.00;;;;;;4974453;28;20061;-19
2022/06/02 09:15:41;;;;;;;0.95;0.30;;;20.90;56.00;;;;;;4979206;28;20047;-19
2022/06/02 09:18:12;;;;;;;1.10;0.38;;;20.90;56.00;;;;;;4977428;28;20699;-19
2022/06/02 09:20:50;;;;;;;0.40;0.30;;;20.90;56.00;;;;;;4977792;28;20507;-19
2022/06/02 09:23:15;;;;;;;0.40;0.30;;;20.90;56.10;;;;;;4978863;28;20059;-19
2022/06/02 09:25:47;;;;;;;0.38;0.28;;;20.90;56.10;;;;;;4977994;28;20042;-19
2022/06/02 09:28:33;;;;;;;0.60;0.30;;;20.90;56.10;;;;;;4978294;28;20047;-20
2022/06/02 09:31:24;;;;;;;0.35;0.30;;;20.90;56.10;;;;;;4993273;28;20102;-19
2022/06/02 09:34:01;;;;;;;0.30;0.30;;;20.90;56.10;;;;;;4978302;28;20401;-19
2022/06/02 09:36:43;;;;;;;0.32;0.28;;;20.90;56.20;;;;;;4976145;28;20141;-19
2022/06/02 09:39:39;;;;;;;0.30;0.30;;;20.90;56.20;;;;;;4977609;28;20067;-19
2022/06/02 09:42:11;;;;;;;0.17;0.17;;;20.90;56.20;;;;;;4982703;28;20039;-21
2022/06/02 09:44:43;;;;;;;0.35;0.35;;;20.90;56.20;;;;;;4977210;28;20448;-19
2022/06/02 09:47:20;;;;;;;0.20;0.20;;;20.90;56.20;;;;;;4977024;28;20051;-20
2022/06/02 09:50:10;;;;;;;0.30;0.30;;;20.90;56.20;;;;;;4977138;28;20074;-19
2022/06/02 09:52:47;;;;;;;0.50;0.30;;;20.90;56.30;;;;;;4977895;28;20061;-19
2022/06/02 09:55:23;;;;;;;0.20;0.20;;;20.90;56.30;;;;;;4978271;28;20129;-18
2022/06/02 09:58:22;;;;;;;0.40;0.30;;;20.90;56.30;;;;;;4975958;28;20054;-19
2022/06/02 10:01:15;;;;;;;0.43;0.43;;;20.90;56.30;;;;;;4992662;28;20066;-19
2022/06/02 10:03:55;;;;;;;1.08;0.40;;;21.00;56.30;;;;;;4975703;28;20453;-19
2022/06/02 10:06:52;;;;;;;0.63;0.30;;;21.00;56.30;;;;;;4978112;28;20393;-20
2022/06/02 10:09:42;;;;;;;1.65;0.52;;;21.00;56.30;;;;;;4977765;28;20047;-19
2022/06/02 10:15:27;;;;;;;0.47;0.28;;;21.00;56.20;;;;;;4957152;28;20057;-19
2022/06/02 10:18:12;;;;;;;0.28;0.28;;;21.00;56.20;;;;;;4973253;28;20050;-20
2022/06/02 10:20:57;;;;;;;0.45;0.45;;;21.00;56.20;;;;;;4977322;28;20047;-18
2022/06/02 10:24:04;;;;;;;0.30;0.30;;;21.00;56.20;;;;;;4977051;28;20071;-19
2022/06/02 10:26:55;;;;;;;0.30;0.28;;;21.00;56.30;;;;;;4991508;28;20073;-19
2022/06/02 10:29:27;;;;;;;0.20;0.20;;;21.00;56.20;;;;;;4974150;28;20122;-20
2022/06/02 10:31:58;;;;;;;0.47;0.20;;;21.00;56.30;;;;;;4974853;28;20051;-18
2022/06/02 10:34:46;;;;;;;0.30;0.30;;;21.10;56.00;;;;;;4626483;28;10000471;-18
2022/06/02 10:37:17;;;;;;;0.47;0.32;;;21.10;56.00;;;;;;4965871;28;20053;-19
2022/06/02 10:39:46;;;;;;;2.35;2.15;;;21.10;56.10;;;;;;4992144;28;20125;-18
2022/06/02 10:42:20;;;;;;;5.57;5.18;;;21.20;56.00;;;;;;4975690;28;20141;-19
2022/06/02 10:45:13;;;;;;;5.53;5.13;;;21.20;56.00;;;;;;4974998;28;20062;-18
2022/06/02 10:48:00;;;;;;;5.60;5.10;;;21.30;56.00;;;;;;4968695;28;20077;-18
2022/06/02 10:50:54;;;;;;;4.88;4.43;;;21.20;56.00;;;;;;4975639;28;20046;-19
2022/06/02 10:53:41;;;;;;;4.20;3.90;;;21.30;56.20;;;;;;4972167;28;20049;-20
2022/06/02 10:56:13;;;;;;;5.60;3.55;;;21.20;56.10;;;;;;4975683;28;20039;-19
2022/06/02 10:58:42;;;;;;;3.72;3.50;;;21.20;56.30;;;;;;4965460;28;20042;-19
2022/06/02 11:01:07;;;;;;;3.85;3.45;;;21.20;56.30;;;;;;4958207;28;20089;-18
2022/06/02 11:04:16;;;;;;;3.30;3.00;;;21.20;56.50;;;;;;4971931;28;20050;-20
2022/06/02 11:06:41;;;;;;;3.50;3.30;;;21.20;56.70;;;;;;4951911;28;20051;-20
2022/06/02 11:09:19;;;;;;;4.88;3.22;;;21.30;56.50;;;;;;4973291;28;20516;-20
2022/06/02 11:11:53;;;;;;;3.58;3.33;;;21.30;56.90;;;;;;4971549;28;20515;-19
2022/06/02 11:14:43;;;;;;;3.20;3.00;;;21.30;56.70;;;;;;4971076;28;20154;-19
2022/06/02 11:17:38;;;;;;;3.83;3.63;;;21.30;56.80;;;;;;4968434;28;20562;-19
2022/06/02 11:20:22;;;;;;;3.00;2.90;;;21.30;56.80;;;;;;4967183;28;20042;-19
2022/06/02 11:22:51;;;;;;;4.53;4.22;;;21.30;57.20;;;;;;4967142;28;20524;-19
2022/06/02 11:25:41;;;;;;;4.35;4.05;;;21.30;58.00;;;;;;4970786;28;20059;-20
2022/06/02 11:28:10;;;;;;;5.07;3.88;;;21.20;57.80;;;;;;4956318;28;20130;-19
2022/06/02 11:30:50;;;;;;;4.30;3.80;;;21.30;57.90;;;;;;4947366;28;20039;-19
2022/06/02 11:33:31;;;;;;;3.25;3.05;;;21.30;57.40;;;;;;4953854;28;20415;-19
2022/06/02 11:36:16;;;;;;;3.35;2.75;;;21.30;57.30;;;;;;4965274;28;20069;-19
2022/06/02 11:38:50;;;;;;;;;;;21.40;57.50;;;;;;4970338;28;20419;-19
2022/06/02 11:41:37;;;;;;;2.92;2.80;;;21.40;57.50;;;;;;4963043;28;20346;-20
2022/06/02 11:44:05;;;;;;;3.20;3.10;;;21.40;57.60;;;;;;4968814;28;20046;-18
2022/06/02 11:46:36;;;;;;;2.97;2.78;;;21.40;57.50;;;;;;4971238;28;20089;-19
2022/06/02 11:49:17;;;;;;;3.35;2.70;;;21.40;57.70;;;;;;4963636;28;20071;-19
2022/06/02 11:52:01;;;;;;;3.20;2.90;;;21.30;57.50;;;;;;4965326;28;20056;-19
2022/06/02 11:54:36;;;;;;;3.13;2.90;;;21.40;57.40;;;;;;4971581;28;20456;-19
2022/06/02 11:57:14;;;;;;;3.00;2.80;;;21.40;57.60;;;;;;4968674;28;20078;-19
2022/06/02 11:59:54;;;;;;;3.15;2.38;;;21.40;57.60;;;;;;4967492;28;20074;-19
2022/06/02 12:02:49;;;;;;;2.53;2.30;;;21.40;57.70;;;;;;4948489;28;20053;-19
2022/06/02 12:05:18;;;;;;;;;;;21.40;57.60;;;;;;4950282;28;20058;-21
2022/06/02 12:07:46;;;;;;;2.10;2.00;;;21.40;57.40;;;;;;4971174;28;20000;-19
2022/06/02 12:10:27;;;;;;;2.28;2.03;;;21.40;57.50;;;;;;4972258;28;20043;-18
2022/06/02 12:13:03;;;;;;;2.00;1.90;;;21.40;57.60;;;;;;4971053;28;20055;-19
2022/06/02 12:15:47;;;;;;;2.30;2.10;;;21.40;58.00;;;;;;4968557;28;20055;-19
2022/06/02 12:18:47;;;;;;;2.25;2.15;;;21.40;57.60;;;;;;4951697;28;20031;-19
2022/06/02 12:21:22;;;;;;;1.95;1.85;;;21.40;57.60;;;;;;4944720;28;20054;-18
2022/06/02 12:24:03;;;;;;;2.30;1.92;;;21.40;57.80;;;;;;4960559;28;20046;-19
2022/06/02 12:26:43;;;;;;;1.70;1.60;;;21.50;57.60;;;;;;4969406;28;20050;-19
2022/06/02 12:29:22;;;;;;;1.95;1.85;;;21.40;57.70;;;;;;4959845;28;20051;-18
2022/06/02 12:32:00;;;;;;;1.70;1.60;;;21.40;57.50;;;;;;4966738;28;20370;-18
2022/06/02 12:34:41;;;;;;;1.92;1.83;;;21.50;57.50;;;;;;4972369;28;20058;-18
2022/06/02 12:37:43;;;;;;;1.90;1.80;;;21.50;57.70;;;;;;4966139;28;20055;-18
2022/06/02 12:40:47;;;;;;;1.60;1.50;;;21.40;57.50;;;;;;4961385;28;20522;-19
2022/06/02 12:43:25;;;;;;;1.70;1.60;;;21.50;57.60;;;;;;4972511;28;20053;-19
2022/06/02 12:46:17;;;;;;;1.63;1.52;;;21.50;57.70;;;;;;4975231;28;20054;-19
2022/06/02 12:49:20;;;;;;;1.90;1.80;;;21.50;57.60;;;;;;4964864;28;20035;-20
2022/06/02 12:51:55;;;;;;;1.70;1.60;;;21.60;57.50;;;;;;4972387;28;20050;-18
2022/06/02 12:54:45;;;;;;;2.17;1.35;;;21.60;57.40;;;;;;4972186;28;20046;-20
2022/06/02 12:57:33;;;;;;;1.73;1.63;;;21.60;57.10;;;;;;4977273;28;20046;-19
2022/06/02 13:00:26;;;;;;;1.65;1.55;;;21.60;57.10;;;;;;4976442;28;20046;-19
2022/06/02 13:03:24;;;;;;;1.60;1.50;;;21.60;57.20;;;;;;4978081;28;20125;-19
2022/06/02 13:06:18;;;;;;;1.60;1.50;;;21.60;57.20;;;;;;4971294;28;20125;-19
2022/06/02 13:08:52;;;;;;;1.20;1.20;;;21.70;57.30;;;;;;4977888;28;20042;-18
2022/06/02 13:11:18;;;;;;;1.50;1.40;;;21.70;57.10;;;;;;4979478;28;20043;-18
2022/06/02 13:14:06;;;;;;;1.95;1.17;;;21.70;57.10;;;;;;4976605;28;20139;-19
2022/06/02 13:17:12;;;;;;;1.40;1.30;;;21.70;57.20;;;;;;4973403;28;20038;-19
2022/06/02 13:19:46;;;;;;;1.30;1.30;;;21.70;57.10;;;;;;4970524;28;20120;-20
2022/06/02 13:22:26;;;;;;;1.23;1.17;;;21.70;57.10;;;;;;4975223;28;20093;-19
2022/06/02 13:24:55;;;;;;;3.05;1.25;;;21.70;57.20;;;;;;4973177;28;20484;-18
2022/06/02 13:27:30;;;;;;;1.95;1.30;;;21.70;57.20;;;;;;4967244;28;20057;-19
2022/06/02 13:30:17;;;;;;;2.20;1.10;;;21.60;57.20;;;;;;4973948;28;20047;-19
2022/06/02 13:33:17;;;;;;;1.40;1.30;;;21.60;57.00;;;;;;4975766;28;20043;-19
2022/06/02 13:36:04;;;;;;;0.98;0.98;;;21.60;57.30;;;;;;4971371;28;20043;-19
2022/06/02 13:38:43;;;;;;;1.25;1.25;;;21.70;57.30;;;;;;4971544;28;20039;-18
2022/06/02 13:41:28;;;;;;;1.40;1.30;;;21.70;57.20;;;;;;4965207;28;20086;-21
2022/06/02 13:44:18;;;;;;;1.92;1.20;;;21.70;57.40;;;;;;4986274;28;20129;-19
2022/06/02 13:46:47;;;;;;;1.05;1.05;;;21.70;57.40;;;;;;4968258;28;20047;-19
2022/06/02 13:49:47;;;;;;;0.95;0.95;;;21.60;57.30;;;;;;4968057;28;20134;-19
2022/06/02 13:52:34;;;;;;;1.00;1.00;;;21.70;57.50;;;;;;4619305;28;10000766;-19
2022/06/02 13:58:16;;;;;;;2.50;1.15;;;21.70;57.20;;;;;;4989881;28;20475;-18
2022/06/02 14:00:51;;;;;;;3.13;1.50;;;21.70;57.20;;;;;;4972307;28;20047;-19
2022/06/02 14:03:45;;;;;;;1.65;1.55;;;21.70;57.20;;;;;;4971943;28;20419;-19
2022/06/02 14:06:13;;;;;;;1.48;1.48;;;21.70;57.20;;;;;;4969936;28;20604;-18
2022/06/02 14:08:43;;;;;;;1.60;1.50;;;21.80;57.40;;;;;;4969160;28;20082;-18
2022/06/02 14:11:27;;;;;;;1.90;1.80;;;21.80;57.50;;;;;;4979278;28;20121;-18
2022/06/02 14:14:22;;;;;;;3.03;1.60;;;21.80;57.70;;;;;;4976455;28;20047;-18
2022/06/02 14:17:25;;;;;;;1.80;1.70;;;21.80;58.20;;;;;;4969417;28;20433;-19
2022/06/02 14:20:11;;;;;;;1.60;1.50;;;21.80;57.50;;;;;;4972437;28;20054;-18
2022/06/02 14:22:37;;;;;;;1.73;1.63;;;21.80;57.50;;;;;;4971080;28;20054;-18
2022/06/02 14:25:09;;;;;;;1.80;1.70;;;21.80;57.70;;;;;;4968763;28;20050;-23